sensor_id;sensor_type;location;lat;lon;timestamp;temperature;humidity
38325;DHT22;24126;52.672;13.622;2024-03-02T00:01:11;12.80;79.60
38325;DHT22;24126;52.672;13.622;2024-03-02T00:03:38;12.80;79.70
38325;DHT22;24126;52.672;13.622;2024-03-02T00:06:06;12.80;79.70
38325;DHT22;24126;52.672;13.622;2024-03-02T00:08:34;12.80;79.70
38325;DHT22;24126;52.672;13.622;2024-03-02T00:13:54;12.80;79.80
38325;DHT22;24126;52.672;13.622;2024-03-02T00:16:22;12.70;79.90
38325;DHT22;24126;52.672;13.622;2024-03-02T00:18:50;12.70;79.70
38325;DHT22;24126;52.672;13.622;2024-03-02T00:21:17;12.70;79.70
38325;DHT22;24126;52.672;13.622;2024-03-02T00:23:47;12.70;79.80
38325;DHT22;24126;52.672;13.622;2024-03-02T00:28:56;12.70;79.80
38325;DHT22;24126;52.672;13.622;2024-03-02T00:33:55;12.70;80.00
38325;DHT22;24126;52.672;13.622;2024-03-02T00:36:24;12.60;79.90
38325;DHT22;24126;52.672;13.622;2024-03-02T00:38:53;12.60;79.90
38325;DHT22;24126;52.672;13.622;2024-03-02T00:41:27;12.60;80.00
38325;DHT22;24126;52.672;13.622;2024-03-02T00:44:12;12.60;80.00
38325;DHT22;24126;52.672;13.622;2024-03-02T00:46:40;12.60;80.00
38325;DHT22;24126;52.672;13.622;2024-03-02T00:49:17;12.60;80.00
38325;DHT22;24126;52.672;13.622;2024-03-02T00:51:46;12.60;80.10
38325;DHT22;24126;52.672;13.622;2024-03-02T00:54:15;12.60;80.10
38325;DHT22;24126;52.672;13.622;2024-03-02T00:56:45;12.60;80.10
38325;DHT22;24126;52.672;13.622;2024-03-02T00:59:14;12.60;80.10
38325;DHT22;24126;52.672;13.622;2024-03-02T01:01:41;12.60;80.10
38325;DHT22;24126;52.672;13.622;2024-03-02T01:04:12;12.70;80.20
38325;DHT22;24126;52.672;13.622;2024-03-02T01:06:40;12.70;80.20
38325;DHT22;24126;52.672;13.622;2024-03-02T01:09:08;12.70;80.20
38325;DHT22;24126;52.672;13.622;2024-03-02T01:11:35;12.70;80.20
38325;DHT22;24126;52.672;13.622;2024-03-02T01:14:03;12.70;80.30
38325;DHT22;24126;52.672;13.622;2024-03-02T01:16:30;12.70;80.30
38325;DHT22;24126;52.672;13.622;2024-03-02T01:18:58;12.70;80.20
38325;DHT22;24126;52.672;13.622;2024-03-02T01:21:25;12.70;80.20
38325;DHT22;24126;52.672;13.622;2024-03-02T01:23:52;12.70;80.20
38325;DHT22;24126;52.672;13.622;2024-03-02T01:26:19;12.70;80.20
38325;DHT22;24126;52.672;13.622;2024-03-02T01:28:48;12.70;80.30
38325;DHT22;24126;52.672;13.622;2024-03-02T01:31:24;12.70;80.40
38325;DHT22;24126;52.672;13.622;2024-03-02T01:33:51;12.70;80.40
38325;DHT22;24126;52.672;13.622;2024-03-02T01:36:19;12.70;80.50
38325;DHT22;24126;52.672;13.622;2024-03-02T01:38:50;12.60;80.70
38325;DHT22;24126;52.672;13.622;2024-03-02T01:41:17;12.60;80.70
38325;DHT22;24126;52.672;13.622;2024-03-02T01:43:45;12.70;80.80
38325;DHT22;24126;52.672;13.622;2024-03-02T01:46:12;12.70;80.70
38325;DHT22;24126;52.672;13.622;2024-03-02T01:48:39;12.70;80.60
38325;DHT22;24126;52.672;13.622;2024-03-02T01:51:06;12.70;80.80
38325;DHT22;24126;52.672;13.622;2024-03-02T01:53:34;12.60;80.80
38325;DHT22;24126;52.672;13.622;2024-03-02T01:56:01;12.70;80.90
38325;DHT22;24126;52.672;13.622;2024-03-02T01:58:29;12.70;80.90
38325;DHT22;24126;52.672;13.622;2024-03-02T02:00:56;12.70;80.90
38325;DHT22;24126;52.672;13.622;2024-03-02T02:03:23;12.70;80.90
38325;DHT22;24126;52.672;13.622;2024-03-02T02:05:53;12.70;80.90
38325;DHT22;24126;52.672;13.622;2024-03-02T02:08:20;12.70;81.00
38325;DHT22;24126;52.672;13.622;2024-03-02T02:10:47;12.70;80.90
38325;DHT22;24126;52.672;13.622;2024-03-02T02:13:15;12.70;80.90
38325;DHT22;24126;52.672;13.622;2024-03-02T02:15:42;12.70;81.10
38325;DHT22;24126;52.672;13.622;2024-03-02T02:18:09;12.70;81.40
38325;DHT22;24126;52.672;13.622;2024-03-02T02:20:36;12.70;81.50
38325;DHT22;24126;52.672;13.622;2024-03-02T02:23:04;12.80;81.50
38325;DHT22;24126;52.672;13.622;2024-03-02T02:25:33;12.80;81.60
38325;DHT22;24126;52.672;13.622;2024-03-02T02:28:01;12.80;81.70
38325;DHT22;24126;52.672;13.622;2024-03-02T02:30:29;12.80;81.80
38325;DHT22;24126;52.672;13.622;2024-03-02T02:32:56;12.80;81.80
38325;DHT22;24126;52.672;13.622;2024-03-02T02:35:24;12.80;81.80
38325;DHT22;24126;52.672;13.622;2024-03-02T02:37:52;12.90;81.90
38325;DHT22;24126;52.672;13.622;2024-03-02T02:40:20;12.90;81.80
38325;DHT22;24126;52.672;13.622;2024-03-02T02:42:48;12.90;81.90
38325;DHT22;24126;52.672;13.622;2024-03-02T02:45:15;12.90;82.00
38325;DHT22;24126;52.672;13.622;2024-03-02T02:47:43;12.90;82.30
38325;DHT22;24126;52.672;13.622;2024-03-02T02:50:11;12.90;82.40
38325;DHT22;24126;52.672;13.622;2024-03-02T02:52:39;12.90;82.80
38325;DHT22;24126;52.672;13.622;2024-03-02T02:55:08;12.90;83.10
38325;DHT22;24126;52.672;13.622;2024-03-02T02:57:35;12.90;83.20
38325;DHT22;24126;52.672;13.622;2024-03-02T03:00:04;13.00;83.30
38325;DHT22;24126;52.672;13.622;2024-03-02T03:02:36;13.00;83.40
38325;DHT22;24126;52.672;13.622;2024-03-02T03:05:05;13.00;83.60
38325;DHT22;24126;52.672;13.622;2024-03-02T03:07:33;13.00;83.60
38325;DHT22;24126;52.672;13.622;2024-03-02T03:10:02;13.00;83.60
38325;DHT22;24126;52.672;13.622;2024-03-02T03:12:30;13.10;83.50
38325;DHT22;24126;52.672;13.622;2024-03-02T03:14:58;13.10;83.60
38325;DHT22;24126;52.672;13.622;2024-03-02T03:17:26;13.10;83.50
38325;DHT22;24126;52.672;13.622;2024-03-02T03:19:53;13.10;83.60
38325;DHT22;24126;52.672;13.622;2024-03-02T03:22:20;13.10;83.60
38325;DHT22;24126;52.672;13.622;2024-03-02T03:24:49;13.10;83.50
38325;DHT22;24126;52.672;13.622;2024-03-02T03:27:16;13.20;83.60
38325;DHT22;24126;52.672;13.622;2024-03-02T03:29:43;13.20;83.50
38325;DHT22;24126;52.672;13.622;2024-03-02T03:32:10;13.20;83.50
38325;DHT22;24126;52.672;13.622;2024-03-02T03:34:38;13.20;83.60
38325;DHT22;24126;52.672;13.622;2024-03-02T03:37:06;13.30;83.60
38325;DHT22;24126;52.672;13.622;2024-03-02T03:39:33;13.30;83.70
38325;DHT22;24126;52.672;13.622;2024-03-02T03:42:01;13.30;83.80
38325;DHT22;24126;52.672;13.622;2024-03-02T03:44:28;13.30;84.40
38325;DHT22;24126;52.672;13.622;2024-03-02T03:46:56;13.30;83.70
38325;DHT22;24126;52.672;13.622;2024-03-02T03:49:23;13.40;83.70
38325;DHT22;24126;52.672;13.622;2024-03-02T03:51:50;13.40;83.70
38325;DHT22;24126;52.672;13.622;2024-03-02T03:54:17;13.40;83.70
38325;DHT22;24126;52.672;13.622;2024-03-02T03:56:44;13.40;83.80
38325;DHT22;24126;52.672;13.622;2024-03-02T03:59:12;13.40;83.80
38325;DHT22;24126;52.672;13.622;2024-03-02T04:01:39;13.40;83.80
38325;DHT22;24126;52.672;13.622;2024-03-02T04:04:07;13.40;83.80
38325;DHT22;24126;52.672;13.622;2024-03-02T04:06:34;13.50;83.90
38325;DHT22;24126;52.672;13.622;2024-03-02T04:09:01;13.50;83.90
38325;DHT22;24126;52.672;13.622;2024-03-02T04:11:29;13.50;84.00
38325;DHT22;24126;52.672;13.622;2024-03-02T04:13:57;13.50;84.00
38325;DHT22;24126;52.672;13.622;2024-03-02T04:16:24;13.50;84.00
38325;DHT22;24126;52.672;13.622;2024-03-02T04:18:52;13.50;83.90
38325;DHT22;24126;52.672;13.622;2024-03-02T04:21:19;13.50;84.00
38325;DHT22;24126;52.672;13.622;2024-03-02T04:23:54;13.50;83.90
38325;DHT22;24126;52.672;13.622;2024-03-02T04:26:24;13.50;84.10
38325;DHT22;24126;52.672;13.622;2024-03-02T04:28:55;13.50;84.00
38325;DHT22;24126;52.672;13.622;2024-03-02T04:31:22;13.60;84.20
38325;DHT22;24126;52.672;13.622;2024-03-02T04:33:49;13.60;84.20
38325;DHT22;24126;52.672;13.622;2024-03-02T04:36:16;13.60;84.20
38325;DHT22;24126;52.672;13.622;2024-03-02T04:38:44;13.60;84.30
38325;DHT22;24126;52.672;13.622;2024-03-02T04:41:11;13.60;84.10
38325;DHT22;24126;52.672;13.622;2024-03-02T04:43:38;13.60;84.10
38325;DHT22;24126;52.672;13.622;2024-03-02T04:46:06;13.60;84.10
38325;DHT22;24126;52.672;13.622;2024-03-02T04:48:34;13.60;84.30
38325;DHT22;24126;52.672;13.622;2024-03-02T04:51:02;13.60;84.20
38325;DHT22;24126;52.672;13.622;2024-03-02T04:53:30;13.60;84.20
38325;DHT22;24126;52.672;13.622;2024-03-02T04:55:57;13.60;84.20
38325;DHT22;24126;52.672;13.622;2024-03-02T04:58:42;13.60;84.30
38325;DHT22;24126;52.672;13.622;2024-03-02T05:01:11;13.60;84.20
38325;DHT22;24126;52.672;13.622;2024-03-02T05:03:38;13.60;84.30
38325;DHT22;24126;52.672;13.622;2024-03-02T05:06:05;13.60;84.20
38325;DHT22;24126;52.672;13.622;2024-03-02T05:08:48;13.60;84.20
38325;DHT22;24126;52.672;13.622;2024-03-02T05:11:15;13.60;84.20
38325;DHT22;24126;52.672;13.622;2024-03-02T05:14:00;13.60;84.20
38325;DHT22;24126;52.672;13.622;2024-03-02T05:16:27;13.60;84.30
38325;DHT22;24126;52.672;13.622;2024-03-02T05:18:54;13.60;84.20
38325;DHT22;24126;52.672;13.622;2024-03-02T05:21:21;13.60;84.20
38325;DHT22;24126;52.672;13.622;2024-03-02T05:23:49;13.60;84.30
38325;DHT22;24126;52.672;13.622;2024-03-02T05:26:16;13.60;84.40
38325;DHT22;24126;52.672;13.622;2024-03-02T05:28:43;13.70;84.60
38325;DHT22;24126;52.672;13.622;2024-03-02T05:31:11;13.60;84.60
38325;DHT22;24126;52.672;13.622;2024-03-02T05:33:38;13.70;84.70
38325;DHT22;24126;52.672;13.622;2024-03-02T05:36:05;13.70;84.70
38325;DHT22;24126;52.672;13.622;2024-03-02T05:38:40;13.70;84.90
38325;DHT22;24126;52.672;13.622;2024-03-02T05:41:07;13.60;85.00
38325;DHT22;24126;52.672;13.622;2024-03-02T05:43:34;13.60;85.40
38325;DHT22;24126;52.672;13.622;2024-03-02T05:46:02;13.60;85.60
38325;DHT22;24126;52.672;13.622;2024-03-02T05:48:29;13.60;85.90
38325;DHT22;24126;52.672;13.622;2024-03-02T05:50:56;13.60;85.80
38325;DHT22;24126;52.672;13.622;2024-03-02T05:53:23;13.60;86.00
38325;DHT22;24126;52.672;13.622;2024-03-02T05:55:50;13.60;86.00
38325;DHT22;24126;52.672;13.622;2024-03-02T05:58:21;13.60;86.20
38325;DHT22;24126;52.672;13.622;2024-03-02T06:00:59;13.50;86.20
38325;DHT22;24126;52.672;13.622;2024-03-02T06:03:26;13.50;86.30
38325;DHT22;24126;52.672;13.622;2024-03-02T06:05:54;13.50;86.40
38325;DHT22;24126;52.672;13.622;2024-03-02T06:08:21;13.50;86.90
38325;DHT22;24126;52.672;13.622;2024-03-02T06:10:48;13.50;87.20
38325;DHT22;24126;52.672;13.622;2024-03-02T06:13:16;13.50;87.10
38325;DHT22;24126;52.672;13.622;2024-03-02T06:15:43;13.50;87.10
38325;DHT22;24126;52.672;13.622;2024-03-02T06:18:10;13.50;87.20
38325;DHT22;24126;52.672;13.622;2024-03-02T06:20:37;13.60;87.20
38325;DHT22;24126;52.672;13.622;2024-03-02T06:23:04;13.60;87.00
38325;DHT22;24126;52.672;13.622;2024-03-02T06:25:32;13.60;86.80
38325;DHT22;24126;52.672;13.622;2024-03-02T06:27:59;13.60;86.80
38325;DHT22;24126;52.672;13.622;2024-03-02T06:30:26;13.60;86.80
38325;DHT22;24126;52.672;13.622;2024-03-02T06:32:53;13.60;87.00
38325;DHT22;24126;52.672;13.622;2024-03-02T06:35:21;13.60;87.00
38325;DHT22;24126;52.672;13.622;2024-03-02T06:37:48;13.60;87.10
38325;DHT22;24126;52.672;13.622;2024-03-02T06:40:15;13.50;87.20
38325;DHT22;24126;52.672;13.622;2024-03-02T06:42:42;13.50;87.10
38325;DHT22;24126;52.672;13.622;2024-03-02T06:45:10;13.60;87.20
38325;DHT22;24126;52.672;13.622;2024-03-02T06:47:37;13.60;87.00
38325;DHT22;24126;52.672;13.622;2024-03-02T06:50:04;13.60;87.00
38325;DHT22;24126;52.672;13.622;2024-03-02T06:52:32;13.70;87.10
38325;DHT22;24126;52.672;13.622;2024-03-02T06:55:00;13.70;87.00
38325;DHT22;24126;52.672;13.622;2024-03-02T06:57:27;13.70;86.90
38325;DHT22;24126;52.672;13.622;2024-03-02T06:59:54;13.70;86.90
38325;DHT22;24126;52.672;13.622;2024-03-02T07:02:24;13.70;86.90
38325;DHT22;24126;52.672;13.622;2024-03-02T07:04:53;13.70;87.00
38325;DHT22;24126;52.672;13.622;2024-03-02T07:07:20;13.60;87.00
38325;DHT22;24126;52.672;13.622;2024-03-02T07:09:47;13.60;87.10
38325;DHT22;24126;52.672;13.622;2024-03-02T07:12:14;13.60;87.10
38325;DHT22;24126;52.672;13.622;2024-03-02T07:14:41;13.70;87.20
38325;DHT22;24126;52.672;13.622;2024-03-02T07:17:33;13.70;87.10
38325;DHT22;24126;52.672;13.622;2024-03-02T07:20:01;13.70;87.10
38325;DHT22;24126;52.672;13.622;2024-03-02T07:22:29;13.70;87.10
38325;DHT22;24126;52.672;13.622;2024-03-02T07:24:56;13.70;87.00
38325;DHT22;24126;52.672;13.622;2024-03-02T07:27:24;13.80;87.00
38325;DHT22;24126;52.672;13.622;2024-03-02T07:29:51;13.80;87.00
38325;DHT22;24126;52.672;13.622;2024-03-02T07:32:18;13.80;86.90
38325;DHT22;24126;52.672;13.622;2024-03-02T07:34:45;13.90;86.90
38325;DHT22;24126;52.672;13.622;2024-03-02T07:37:12;13.90;86.90
38325;DHT22;24126;52.672;13.622;2024-03-02T07:39:39;13.90;86.90
38325;DHT22;24126;52.672;13.622;2024-03-02T07:42:06;13.90;86.90
38325;DHT22;24126;52.672;13.622;2024-03-02T07:44:33;13.90;87.00
38325;DHT22;24126;52.672;13.622;2024-03-02T07:47:00;13.90;86.90
38325;DHT22;24126;52.672;13.622;2024-03-02T07:49:28;13.90;86.80
38325;DHT22;24126;52.672;13.622;2024-03-02T07:51:55;13.90;86.80
38325;DHT22;24126;52.672;13.622;2024-03-02T07:54:22;13.90;86.80
38325;DHT22;24126;52.672;13.622;2024-03-02T07:56:49;13.80;86.90
38325;DHT22;24126;52.672;13.622;2024-03-02T07:59:17;13.90;87.10
38325;DHT22;24126;52.672;13.622;2024-03-02T08:01:44;13.90;87.00
38325;DHT22;24126;52.672;13.622;2024-03-02T08:04:11;13.90;86.90
38325;DHT22;24126;52.672;13.622;2024-03-02T08:06:38;13.90;86.80
38325;DHT22;24126;52.672;13.622;2024-03-02T08:09:05;13.90;86.90
38325;DHT22;24126;52.672;13.622;2024-03-02T08:11:36;14.00;86.70
38325;DHT22;24126;52.672;13.622;2024-03-02T08:14:03;14.00;86.70
38325;DHT22;24126;52.672;13.622;2024-03-02T08:16:30;14.00;86.70
38325;DHT22;24126;52.672;13.622;2024-03-02T08:18:57;14.00;86.60
38325;DHT22;24126;52.672;13.622;2024-03-02T08:21:24;13.90;86.70
38325;DHT22;24126;52.672;13.622;2024-03-02T08:23:52;13.90;86.80
38325;DHT22;24126;52.672;13.622;2024-03-02T08:26:19;13.90;86.80
38325;DHT22;24126;52.672;13.622;2024-03-02T08:28:46;13.90;86.80
38325;DHT22;24126;52.672;13.622;2024-03-02T08:31:13;13.90;86.90
38325;DHT22;24126;52.672;13.622;2024-03-02T08:33:40;13.90;86.80
38325;DHT22;24126;52.672;13.622;2024-03-02T08:36:07;14.00;86.70
38325;DHT22;24126;52.672;13.622;2024-03-02T08:38:35;14.00;86.70
38325;DHT22;24126;52.672;13.622;2024-03-02T08:41:02;14.00;86.60
38325;DHT22;24126;52.672;13.622;2024-03-02T08:43:30;14.00;86.70
38325;DHT22;24126;52.672;13.622;2024-03-02T08:45:57;14.00;86.70
38325;DHT22;24126;52.672;13.622;2024-03-02T08:48:25;14.00;86.60
38325;DHT22;24126;52.672;13.622;2024-03-02T08:50:52;14.10;86.80
38325;DHT22;24126;52.672;13.622;2024-03-02T08:53:19;14.10;86.50
38325;DHT22;24126;52.672;13.622;2024-03-02T08:55:46;14.10;86.60
38325;DHT22;24126;52.672;13.622;2024-03-02T08:58:13;14.10;86.40
38325;DHT22;24126;52.672;13.622;2024-03-02T09:00:40;14.10;86.30
38325;DHT22;24126;52.672;13.622;2024-03-02T09:03:08;14.10;86.20
38325;DHT22;24126;52.672;13.622;2024-03-02T09:05:35;14.10;86.20
38325;DHT22;24126;52.672;13.622;2024-03-02T09:08:02;14.10;86.20
38325;DHT22;24126;52.672;13.622;2024-03-02T09:10:29;14.20;86.00
38325;DHT22;24126;52.672;13.622;2024-03-02T09:12:56;14.20;85.90
38325;DHT22;24126;52.672;13.622;2024-03-02T09:15:24;14.20;86.00
38325;DHT22;24126;52.672;13.622;2024-03-02T09:17:51;14.30;86.00
38325;DHT22;24126;52.672;13.622;2024-03-02T09:20:18;14.40;85.90
38325;DHT22;24126;52.672;13.622;2024-03-02T09:22:45;14.40;85.50
38325;DHT22;24126;52.672;13.622;2024-03-02T09:25:13;14.40;85.40
38325;DHT22;24126;52.672;13.622;2024-03-02T09:27:41;14.40;86.00
38325;DHT22;24126;52.672;13.622;2024-03-02T09:30:09;14.40;85.50
38325;DHT22;24126;52.672;13.622;2024-03-02T09:32:37;14.40;85.60
38325;DHT22;24126;52.672;13.622;2024-03-02T09:35:04;14.40;85.40
38325;DHT22;24126;52.672;13.622;2024-03-02T09:37:31;14.50;85.30
38325;DHT22;24126;52.672;13.622;2024-03-02T09:39:58;14.50;85.20
38325;DHT22;24126;52.672;13.622;2024-03-02T09:42:27;14.60;85.30
38325;DHT22;24126;52.672;13.622;2024-03-02T09:44:54;14.70;85.10
38325;DHT22;24126;52.672;13.622;2024-03-02T09:47:21;14.70;85.10
38325;DHT22;24126;52.672;13.622;2024-03-02T09:49:49;14.70;84.50
38325;DHT22;24126;52.672;13.622;2024-03-02T09:52:16;14.80;84.40
38325;DHT22;24126;52.672;13.622;2024-03-02T09:54:43;14.80;84.40
38325;DHT22;24126;52.672;13.622;2024-03-02T09:57:10;14.80;85.00
38325;DHT22;24126;52.672;13.622;2024-03-02T09:59:37;14.90;84.20
38325;DHT22;24126;52.672;13.622;2024-03-02T10:02:04;14.90;83.90
38325;DHT22;24126;52.672;13.622;2024-03-02T10:04:33;15.00;83.90
38325;DHT22;24126;52.672;13.622;2024-03-02T10:07:09;15.00;83.90
38325;DHT22;24126;52.672;13.622;2024-03-02T10:09:37;15.10;83.90
38325;DHT22;24126;52.672;13.622;2024-03-02T10:12:04;15.20;83.70
38325;DHT22;24126;52.672;13.622;2024-03-02T10:14:31;15.40;83.70
38325;DHT22;24126;52.672;13.622;2024-03-02T10:17:02;15.50;83.10
38325;DHT22;24126;52.672;13.622;2024-03-02T10:19:30;15.60;82.70
38325;DHT22;24126;52.672;13.622;2024-03-02T10:21:58;15.60;82.10
38325;DHT22;24126;52.672;13.622;2024-03-02T10:24:26;15.70;82.00
38325;DHT22;24126;52.672;13.622;2024-03-02T10:26:53;15.70;81.80
38325;DHT22;24126;52.672;13.622;2024-03-02T10:29:22;15.70;81.30
38325;DHT22;24126;52.672;13.622;2024-03-02T10:31:49;15.80;81.30
38325;DHT22;24126;52.672;13.622;2024-03-02T10:34:16;15.80;81.10
38325;DHT22;24126;52.672;13.622;2024-03-02T10:36:44;15.80;80.80
38325;DHT22;24126;52.672;13.622;2024-03-02T10:39:12;15.80;80.30
38325;DHT22;24126;52.672;13.622;2024-03-02T10:41:40;15.80;80.40
38325;DHT22;24126;52.672;13.622;2024-03-02T10:44:08;15.90;80.80
38325;DHT22;24126;52.672;13.622;2024-03-02T10:46:36;15.90;80.70
38325;DHT22;24126;52.672;13.622;2024-03-02T10:49:04;15.90;80.30
38325;DHT22;24126;52.672;13.622;2024-03-02T10:51:32;15.90;80.00
38325;DHT22;24126;52.672;13.622;2024-03-02T10:53:59;16.00;79.90
38325;DHT22;24126;52.672;13.622;2024-03-02T10:56:28;16.00;80.00
38325;DHT22;24126;52.672;13.622;2024-03-02T10:59:02;16.10;79.70
38325;DHT22;24126;52.672;13.622;2024-03-02T11:01:31;16.10;79.60
38325;DHT22;24126;52.672;13.622;2024-03-02T11:03:58;16.20;79.50
38325;DHT22;24126;52.672;13.622;2024-03-02T11:06:27;16.20;79.60
38325;DHT22;24126;52.672;13.622;2024-03-02T11:08:57;16.30;79.30
38325;DHT22;24126;52.672;13.622;2024-03-02T11:11:29;16.40;79.10
38325;DHT22;24126;52.672;13.622;2024-03-02T11:13:57;16.50;78.70
38325;DHT22;24126;52.672;13.622;2024-03-02T11:16:31;16.60;78.40
38325;DHT22;24126;52.672;13.622;2024-03-02T11:19:11;16.70;78.10
38325;DHT22;24126;52.672;13.622;2024-03-02T11:21:39;16.90;77.90
38325;DHT22;24126;52.672;13.622;2024-03-02T11:26:52;17.10;76.40
38325;DHT22;24126;52.672;13.622;2024-03-02T11:32:02;17.10;75.90
38325;DHT22;24126;52.672;13.622;2024-03-02T11:34:30;17.20;76.10
38325;DHT22;24126;52.672;13.622;2024-03-02T11:36:58;17.30;75.40
38325;DHT22;24126;52.672;13.622;2024-03-02T11:39:26;17.30;75.00
38325;DHT22;24126;52.672;13.622;2024-03-02T11:41:53;17.40;75.00
38325;DHT22;24126;52.672;13.622;2024-03-02T11:44:20;17.40;74.40
38325;DHT22;24126;52.672;13.622;2024-03-02T11:47:00;17.40;74.70
38325;DHT22;24126;52.672;13.622;2024-03-02T11:52:04;17.40;74.30
38325;DHT22;24126;52.672;13.622;2024-03-02T11:54:32;17.40;73.60
38325;DHT22;24126;52.672;13.622;2024-03-02T11:57:01;17.40;73.80
38325;DHT22;24126;52.672;13.622;2024-03-02T11:59:29;17.40;73.70
38325;DHT22;24126;52.672;13.622;2024-03-02T12:01:56;17.40;73.40
38325;DHT22;24126;52.672;13.622;2024-03-02T12:04:24;17.40;73.70
38325;DHT22;24126;52.672;13.622;2024-03-02T12:06:55;17.40;73.60
38325;DHT22;24126;52.672;13.622;2024-03-02T12:09:26;17.50;73.50
38325;DHT22;24126;52.672;13.622;2024-03-02T12:14:33;17.40;73.40
38325;DHT22;24126;52.672;13.622;2024-03-02T12:17:01;17.40;73.40
38325;DHT22;24126;52.672;13.622;2024-03-02T12:19:29;17.50;73.40
38325;DHT22;24126;52.672;13.622;2024-03-02T12:21:56;17.40;72.60
38325;DHT22;24126;52.672;13.622;2024-03-02T12:24:24;17.40;72.30
38325;DHT22;24126;52.672;13.622;2024-03-02T12:26:53;17.40;72.60
38325;DHT22;24126;52.672;13.622;2024-03-02T12:29:20;17.30;72.30
38325;DHT22;24126;52.672;13.622;2024-03-02T12:31:51;17.30;72.40
38325;DHT22;24126;52.672;13.622;2024-03-02T12:34:19;17.30;72.40
38325;DHT22;24126;52.672;13.622;2024-03-02T12:36:46;17.30;72.30
38325;DHT22;24126;52.672;13.622;2024-03-02T12:39:16;17.30;71.80
38325;DHT22;24126;52.672;13.622;2024-03-02T12:41:43;17.20;72.00
38325;DHT22;24126;52.672;13.622;2024-03-02T12:44:10;17.20;72.30
38325;DHT22;24126;52.672;13.622;2024-03-02T12:46:38;17.30;71.90
38325;DHT22;24126;52.672;13.622;2024-03-02T12:49:07;17.30;73.10
38325;DHT22;24126;52.672;13.622;2024-03-02T12:51:34;17.30;72.40
38325;DHT22;24126;52.672;13.622;2024-03-02T12:54:02;17.30;71.90
38325;DHT22;24126;52.672;13.622;2024-03-02T12:56:31;17.30;71.50
38325;DHT22;24126;52.672;13.622;2024-03-02T12:58:58;17.30;71.60
38325;DHT22;24126;52.672;13.622;2024-03-02T13:01:26;17.40;71.60
38325;DHT22;24126;52.672;13.622;2024-03-02T13:03:53;17.40;71.70
38325;DHT22;24126;52.672;13.622;2024-03-02T13:06:21;17.40;71.80
38325;DHT22;24126;52.672;13.622;2024-03-02T13:08:48;17.40;71.30
38325;DHT22;24126;52.672;13.622;2024-03-02T13:11:16;17.40;72.10
38325;DHT22;24126;52.672;13.622;2024-03-02T13:13:43;17.40;71.30
38325;DHT22;24126;52.672;13.622;2024-03-02T13:16:11;17.40;71.10
38325;DHT22;24126;52.672;13.622;2024-03-02T13:18:39;17.40;71.00
38325;DHT22;24126;52.672;13.622;2024-03-02T13:21:07;17.40;71.00
38325;DHT22;24126;52.672;13.622;2024-03-02T13:23:35;17.40;70.70
38325;DHT22;24126;52.672;13.622;2024-03-02T13:26:02;17.40;70.70
38325;DHT22;24126;52.672;13.622;2024-03-02T13:28:30;17.50;70.80
38325;DHT22;24126;52.672;13.622;2024-03-02T13:30:57;17.50;70.30
38325;DHT22;24126;52.672;13.622;2024-03-02T13:33:24;17.60;70.30
38325;DHT22;24126;52.672;13.622;2024-03-02T13:35:51;17.60;70.30
38325;DHT22;24126;52.672;13.622;2024-03-02T13:38:19;17.60;69.70
38325;DHT22;24126;52.672;13.622;2024-03-02T13:40:48;17.70;69.40
38325;DHT22;24126;52.672;13.622;2024-03-02T13:43:16;17.70;69.40
38325;DHT22;24126;52.672;13.622;2024-03-02T13:45:44;17.70;69.60
38325;DHT22;24126;52.672;13.622;2024-03-02T13:48:11;17.60;69.30
38325;DHT22;24126;52.672;13.622;2024-03-02T13:50:40;17.70;69.30
38325;DHT22;24126;52.672;13.622;2024-03-02T13:53:07;17.70;69.40
38325;DHT22;24126;52.672;13.622;2024-03-02T13:55:34;17.70;69.30
38325;DHT22;24126;52.672;13.622;2024-03-02T13:58:02;17.80;69.10
38325;DHT22;24126;52.672;13.622;2024-03-02T14:00:29;17.70;68.80
38325;DHT22;24126;52.672;13.622;2024-03-02T14:02:56;17.70;68.70
38325;DHT22;24126;52.672;13.622;2024-03-02T14:05:23;17.80;69.00
38325;DHT22;24126;52.672;13.622;2024-03-02T14:07:50;17.80;68.80
38325;DHT22;24126;52.672;13.622;2024-03-02T14:10:18;17.80;69.00
38325;DHT22;24126;52.672;13.622;2024-03-02T14:12:48;17.80;68.80
38325;DHT22;24126;52.672;13.622;2024-03-02T14:15:15;17.80;68.60
38325;DHT22;24126;52.672;13.622;2024-03-02T14:17:42;17.80;68.70
38325;DHT22;24126;52.672;13.622;2024-03-02T14:20:09;17.80;68.70
38325;DHT22;24126;52.672;13.622;2024-03-02T14:22:38;17.90;68.50
38325;DHT22;24126;52.672;13.622;2024-03-02T14:25:05;17.80;68.20
38325;DHT22;24126;52.672;13.622;2024-03-02T14:27:32;17.90;68.80
38325;DHT22;24126;52.672;13.622;2024-03-02T14:30:01;17.80;67.90
38325;DHT22;24126;52.672;13.622;2024-03-02T14:32:28;17.80;68.20
38325;DHT22;24126;52.672;13.622;2024-03-02T14:34:55;17.70;68.20
38325;DHT22;24126;52.672;13.622;2024-03-02T14:37:23;17.80;68.60
38325;DHT22;24126;52.672;13.622;2024-03-02T14:39:53;17.70;68.40
38325;DHT22;24126;52.672;13.622;2024-03-02T14:42:21;17.70;68.40
38325;DHT22;24126;52.672;13.622;2024-03-02T14:44:48;17.70;68.60
38325;DHT22;24126;52.672;13.622;2024-03-02T14:47:16;17.70;69.20
38325;DHT22;24126;52.672;13.622;2024-03-02T14:49:43;17.70;68.40
38325;DHT22;24126;52.672;13.622;2024-03-02T14:52:10;17.70;68.20
38325;DHT22;24126;52.672;13.622;2024-03-02T14:54:38;17.70;68.80
38325;DHT22;24126;52.672;13.622;2024-03-02T14:57:05;17.70;68.70
38325;DHT22;24126;52.672;13.622;2024-03-02T14:59:33;17.70;68.80
38325;DHT22;24126;52.672;13.622;2024-03-02T15:02:00;17.70;68.90
38325;DHT22;24126;52.672;13.622;2024-03-02T15:04:27;17.70;68.30
38325;DHT22;24126;52.672;13.622;2024-03-02T15:06:54;17.70;68.60
38325;DHT22;24126;52.672;13.622;2024-03-02T15:09:21;17.60;68.90
38325;DHT22;24126;52.672;13.622;2024-03-02T15:11:48;17.60;68.90
38325;DHT22;24126;52.672;13.622;2024-03-02T15:14:16;17.60;69.10
38325;DHT22;24126;52.672;13.622;2024-03-02T15:16:43;17.60;69.30
38325;DHT22;24126;52.672;13.622;2024-03-02T15:19:10;17.50;69.10
38325;DHT22;24126;52.672;13.622;2024-03-02T15:21:37;17.50;69.30
38325;DHT22;24126;52.672;13.622;2024-03-02T15:24:04;17.40;69.40
38325;DHT22;24126;52.672;13.622;2024-03-02T15:26:34;17.40;69.60
38325;DHT22;24126;52.672;13.622;2024-03-02T15:29:01;17.40;69.60
38325;DHT22;24126;52.672;13.622;2024-03-02T15:31:28;17.30;69.70
38325;DHT22;24126;52.672;13.622;2024-03-02T15:33:55;17.30;70.50
38325;DHT22;24126;52.672;13.622;2024-03-02T15:36:24;17.20;69.90
38325;DHT22;24126;52.672;13.622;2024-03-02T15:38:52;17.20;69.90